Time;durP1;ratioP1;P1;durP2;ratioP2;P2;SDS_P1;SDS_P2;PMS_P1;PMS_P2;Temp;Humidity;BMP_temperature;BMP_pressure;BME280_temperature;BME280_humidity;BME280_pressure;Samples;Min_cycle;Max_cycle;Signal;HPM_P1;HPM_P2
2021/01/07 00:01:18;;;;;;;22.73;11.13;;;;;;;25.62;16.13;97392.06;5083948;28;20116;-90
2021/01/07 00:03:44;;;;;;;35.70;16.30;;;;;;;24.42;17.31;97385.97;5083104;28;20052;-90
2021/01/07 00:06:12;;;;;;;29.00;11.38;;;;;;;24.46;17.24;97383.03;5073644;28;20036;-90
2021/01/07 00:08:38;;;;;;;18.27;8.93;;;;;;;24.96;16.71;97390.50;5083217;28;20044;-89
2021/01/07 00:11:06;;;;;;;26.60;13.20;;;;;;;25.25;16.41;97393.84;5074524;28;20445;-89
2021/01/07 00:13:32;;;;;;;18.83;10.50;;;;;;;25.85;16.00;97394.34;5076940;28;20036;-89
2021/01/07 00:15:59;;;;;;;23.58;10.85;;;;;;;26.36;15.43;97378.59;5078312;28;20089;-89
2021/01/07 00:18:25;;;;;;;25.17;12.73;;;;;;;26.69;15.00;97387.22;5081872;28;20078;-90
2021/01/07 00:20:52;;;;;;;29.83;13.02;;;;;;;26.83;14.91;97392.28;5086516;28;20383;-90
2021/01/07 00:23:18;;;;;;;29.92;14.38;;;;;;;26.92;14.77;97391.47;5086726;28;20089;-90
2021/01/07 00:25:51;;;;;;;48.08;22.17;;;;;;;26.77;14.71;97396.94;5081843;28;20021;-89
2021/01/07 00:28:18;;;;;;;52.30;23.15;;;;;;;26.47;15.20;97389.38;5080641;28;20028;-91
2021/01/07 00:30:45;;;;;;;41.92;21.25;;;;;;;26.29;15.29;97392.16;5079184;28;20047;-91
2021/01/07 00:33:12;;;;;;;34.78;16.55;;;;;;;26.47;15.27;97398.63;5082159;28;20051;-90
2021/01/07 00:35:38;;;;;;;38.25;19.00;;;;;;;26.38;15.17;97403.44;5077414;28;20037;-89
2021/01/07 00:38:06;;;;;;;36.67;18.45;;;;;;;26.25;15.32;97403.59;5085235;28;20024;-90
2021/01/07 00:40:33;;;;;;;44.53;20.98;;;;;;;26.19;15.52;97422.31;5085528;28;20136;-89
2021/01/07 00:42:59;;;;;;;42.38;20.13;;;;;;;25.78;15.79;97420.72;5072988;28;20040;-90
2021/01/07 00:45:25;;;;;;;41.15;18.10;;;;;;;25.54;15.92;97419.66;5076063;28;20036;-89
2021/01/07 00:47:51;;;;;;;47.30;22.92;;;;;;;24.77;16.84;97409.22;5074099;28;20025;-89
2021/01/07 00:50:17;;;;;;;32.90;15.90;;;;;;;25.09;16.35;97406.06;5062310;28;20028;-89
2021/01/07 00:52:44;;;;;;;30.15;14.40;;;;;;;25.76;16.01;97414.00;5085290;28;20043;-89
2021/01/07 00:55:11;;;;;;;30.92;14.57;;;;;;;26.38;15.42;97407.03;5085050;28;20367;-90
2021/01/07 00:57:37;;;;;;;49.13;21.10;;;;;;;26.19;15.26;97411.06;5075910;28;20024;-89
2021/01/07 01:00:10;;;;;;;36.05;16.52;;;;;;;25.91;15.70;97420.59;5081054;28;20107;-90
2021/01/07 01:02:36;;;;;;;35.30;17.63;;;;;;;25.76;15.67;97414.78;5081888;28;20051;-90
2021/01/07 01:05:04;;;;;;;43.28;19.40;;;;;;;25.46;16.00;97414.78;5075689;28;20045;-91
2021/01/07 01:07:30;;;;;;;47.30;22.00;;;;;;;25.36;16.13;97414.69;5073109;28;20035;-90
2021/01/07 01:09:56;;;;;;;40.13;17.92;;;;;;;25.41;16.30;97414.06;5081859;28;20035;-90
2021/01/07 01:12:22;;;;;;;30.33;13.88;;;;;;;25.77;15.98;97421.97;5079788;28;20036;-90
2021/01/07 01:14:48;;;;;;;35.90;17.65;;;;;;;26.22;15.39;97426.22;5078057;28;20032;-90
2021/01/07 01:17:15;;;;;;;31.40;15.65;;;;;;;26.53;15.35;97413.66;5074136;28;20056;-90
2021/01/07 01:19:41;;;;;;;39.10;18.33;;;;;;;26.14;15.22;97414.47;5069382;28;20033;-90
2021/01/07 01:22:07;;;;;;;29.48;13.88;;;;;;;26.05;15.71;97417.22;5075761;28;20087;-90
2021/01/07 01:24:33;;;;;;;35.75;16.00;;;;;;;26.39;15.37;97413.47;5063758;28;20052;-90
2021/01/07 01:27:00;;;;;;;27.15;14.85;;;;;;;26.66;15.11;97414.28;5077681;28;20037;-91
2021/01/07 01:29:27;;;;;;;34.38;17.00;;;;;;;26.58;15.05;97415.06;5070836;28;20445;-89
2021/01/07 01:31:53;;;;;;;33.50;16.58;;;;;;;26.58;15.06;97415.84;5059415;28;20040;-90
2021/01/07 01:34:21;;;;;;;45.90;22.38;;;;;;;26.21;15.35;97425.44;5073461;28;20032;-89
2021/01/07 01:36:47;;;;;;;52.28;26.98;;;;;;;24.53;16.95;97410.84;5080453;28;20545;-89
2021/01/07 01:39:15;;;;;;;44.30;20.48;;;;;;;24.48;17.16;97405.81;5078039;28;20112;-89
2021/01/07 01:41:48;;;;;;;57.17;27.00;;;;;;;23.32;18.06;97397.03;5076857;28;20131;-90
2021/01/07 01:44:15;;;;;;;32.70;16.02;;;;;;;23.95;17.76;97402.72;5076976;28;20123;-90
2021/01/07 01:46:41;;;;;;;38.55;18.45;;;;;;;24.88;16.91;97400.44;5077336;28;20020;-90
2021/01/07 01:49:12;;;;;;;43.38;20.50;;;;;;;25.30;16.44;97390.44;5067063;28;20495;-89
2021/01/07 01:51:38;;;;;;;52.05;23.60;;;;;;;25.24;16.33;97404.31;5075882;28;20147;-89
2021/01/07 01:54:05;;;;;;;51.95;22.75;;;;;;;24.36;17.29;97407.44;5077787;28;20028;-90
2021/01/07 01:56:33;;;;;;;48.83;23.77;;;;;;;24.29;17.46;97401.25;5080188;28;20111;-89
2021/01/07 01:59:00;;;;;;;46.85;20.83;;;;;;;24.76;16.98;97396.44;5073698;28;20024;-89
2021/01/07 02:01:26;;;;;;;54.22;26.63;;;;;;;24.66;17.13;97403.97;5075552;28;20114;-90
2021/01/07 02:03:54;;;;;;;46.95;22.83;;;;;;;24.37;17.33;97391.34;5071605;28;20103;-89
2021/01/07 02:06:23;;;;;;;39.08;20.58;;;;;;;24.99;16.85;97398.81;5082030;28;20115;-90
2021/01/07 02:08:51;;;;;;;43.83;20.42;;;;;;;25.58;16.35;97400.63;5063625;28;20025;-89
2021/01/07 02:11:17;;;;;;;35.88;18.10;;;;;;;25.72;16.18;97399.31;5090610;28;20028;-89
2021/01/07 02:13:47;;;;;;;34.08;17.65;;;;;;;26.10;15.57;97396.97;5092892;28;20024;-90
2021/01/07 02:16:24;;;;;;;35.53;16.48;;;;;;;26.29;15.57;97397.78;5076772;28;20032;-90
2021/01/07 02:18:56;;;;;;;43.38;21.65;;;;;;;26.11;15.79;97398.53;5069135;28;20028;-89
2021/01/07 02:21:24;;;;;;;53.30;25.38;;;;;;;25.61;16.53;97401.72;5076084;28;20032;-89
2021/01/07 02:23:54;;;;;;;44.88;20.95;;;;;;;25.00;16.95;97399.59;5078521;28;20032;-90
2021/01/07 02:26:24;;;;;;;46.92;21.95;;;;;;;24.96;17.23;97402.53;5059938;28;20024;-90
2021/01/07 02:28:51;;;;;;;35.55;17.20;;;;;;;25.26;16.69;97399.00;5072513;28;20076;-89
2021/01/07 02:31:17;;;;;;;39.65;19.30;;;;;;;25.66;16.55;97403.94;5076275;28;20060;-90
2021/01/07 02:33:44;;;;;;;39.47;19.83;;;;;;;25.85;16.15;97400.75;5073116;28;20073;-90
2021/01/07 02:36:11;;;;;;;34.63;16.40;;;;;;;26.17;15.89;97401.50;5075602;28;20365;-90
2021/01/07 02:38:37;;;;;;;43.50;19.30;;;;;;;26.42;15.66;97396.41;5079264;28;20440;-90
2021/01/07 02:41:04;;;;;;;32.67;16.88;;;;;;;26.59;15.65;97396.91;5077807;28;20093;-90
2021/01/07 02:43:31;;;;;;;35.65;17.30;;;;;;;26.78;15.56;97394.94;5076000;28;20044;-90
2021/01/07 02:45:57;;;;;;;36.47;17.98;;;;;;;27.04;15.10;97399.00;5073919;28;20025;-90
2021/01/07 02:48:23;;;;;;;46.88;20.75;;;;;;;26.98;15.24;97400.88;5060985;28;20032;-90
2021/01/07 02:50:49;;;;;;;52.35;22.67;;;;;;;26.83;15.27;97411.19;5062267;28;20032;-90
2021/01/07 02:53:16;;;;;;;40.88;20.20;;;;;;;26.69;15.63;97404.13;5075571;28;20522;-90
2021/01/07 02:55:42;;;;;;;52.47;22.45;;;;;;;26.42;15.66;97407.66;5076005;28;20107;-90
2021/01/07 02:58:08;;;;;;;48.67;22.77;;;;;;;26.06;16.08;97408.34;5075604;28;20040;-90
2021/01/07 03:00:34;;;;;;;41.97;18.95;;;;;;;26.03;16.18;97403.63;5077981;28;20035;-90
2021/01/07 03:03:01;;;;;;;37.75;17.40;;;;;;;25.90;16.29;97405.78;5074045;28;20033;-90
2021/01/07 03:05:27;;;;;;;49.58;22.60;;;;;;;25.75;16.30;97403.97;5073864;28;20024;-89
2021/01/07 03:07:53;;;;;;;44.47;20.98;;;;;;;25.35;16.79;97398.25;5066693;28;20037;-90
2021/01/07 03:10:19;;;;;;;38.08;18.05;;;;;;;25.65;16.39;97396.75;5074913;28;20028;-90
2021/01/07 03:12:46;;;;;;;45.65;22.10;;;;;;;25.89;16.31;97400.59;5071989;28;20037;-90
2021/01/07 03:15:12;;;;;;;44.05;22.67;;;;;;;26.15;16.11;97404.81;5076269;28;20028;-90
2021/01/07 03:17:38;;;;;;;41.00;19.42;;;;;;;26.55;15.77;97399.91;5078924;28;20029;-90
2021/01/07 03:20:13;;;;;;;37.25;17.35;;;;;;;26.87;15.40;97404.16;5080141;28;20039;-90
2021/01/07 03:22:40;;;;;;;43.63;20.80;;;;;;;27.16;15.21;97406.50;5087041;28;20032;-90
2021/01/07 03:25:11;;;;;;;38.13;18.00;;;;;;;27.31;14.88;97399.75;5087089;28;20071;-90
2021/01/07 03:27:37;;;;;;;;;;;;;;;27.08;15.13;97403.22;5083827;28;20028;-90
2021/01/07 03:30:05;;;;;;;43.38;19.02;;;;;;;27.17;15.11;97405.25;5079321;28;19916;-90
2021/01/07 03:32:31;;;;;;;38.38;17.42;;;;;;;27.18;15.05;97404.00;5075439;28;20032;-90
2021/01/07 03:34:57;;;;;;;32.22;15.63;;;;;;;26.91;15.24;97399.16;5083257;28;20092;-90
2021/01/07 03:37:23;;;;;;;31.38;16.20;;;;;;;27.05;15.21;97400.56;5076363;28;20031;-90
2021/01/07 03:39:49;;;;;;;28.27;13.30;;;;;;;27.28;15.11;97405.56;5080493;28;20370;-90
2021/01/07 03:42:15;;;;;;;34.33;16.38;;;;;;;27.35;14.94;97406.00;5072507;28;21928;-90
2021/01/07 03:44:42;;;;;;;33.38;16.52;;;;;;;27.54;15.03;97408.81;5075312;28;20409;-90
2021/01/07 03:47:08;;;;;;;30.55;12.90;;;;;;;27.66;14.61;97402.97;5086735;28;20035;-90
2021/01/07 03:49:34;;;;;;;33.33;16.33;;;;;;;27.68;14.89;97406.09;5096026;28;20432;-90
2021/01/07 03:52:00;;;;;;;31.88;16.85;;;;;;;27.47;14.92;97409.16;5094795;28;20039;-91
2021/01/07 03:54:26;;;;;;;44.50;21.77;;;;;;;26.67;15.37;97398.97;5094566;28;20507;-90
2021/01/07 03:56:52;;;;;;;42.08;20.27;;;;;;;25.69;16.57;97406.63;5090951;28;20033;-90
2021/01/07 03:59:18;;;;;;;31.75;17.05;;;;;;;25.57;16.65;97404.69;5086019;28;20032;-91
2021/01/07 04:01:44;;;;;;;29.35;15.10;;;;;;;25.77;16.45;97402.28;5091153;28;20040;-90
2021/01/07 04:04:10;;;;;;;31.55;14.48;;;;;;;26.21;16.18;97414.19;5088300;28;20485;-90
2021/01/07 04:06:37;;;;;;;32.95;16.33;;;;;;;26.73;15.59;97404.75;5095088;28;20028;-91
2021/01/07 04:09:04;;;;;;;29.70;14.25;;;;;;;27.08;15.20;97397.59;5094147;28;20028;-90
2021/01/07 04:11:30;;;;;;;34.15;16.52;;;;;;;27.34;15.23;97403.66;5093066;28;20066;-90
2021/01/07 04:13:56;;;;;;;38.90;16.42;;;;;;;27.46;14.94;97408.38;5094205;28;20438;-90
2021/01/07 04:16:23;;;;;;;35.28;15.52;;;;;;;27.04;15.29;97407.44;5092915;28;20059;-90
2021/01/07 04:18:49;;;;;;;37.13;17.20;;;;;;;26.80;15.40;97404.47;5093336;28;20028;-90
2021/01/07 04:21:18;;;;;;;49.05;21.60;;;;;;;26.12;15.99;97411.34;5093100;28;20050;-91
2021/01/07 04:23:44;;;;;;;22.88;11.10;;;;;;;25.84;16.47;97416.06;5095319;28;20034;-90
2021/01/07 04:26:11;;;;;;;25.98;13.25;;;;;;;26.36;15.92;97415.19;5095677;28;20064;-90
2021/01/07 04:28:37;;;;;;;26.20;12.18;;;;;;;26.88;15.43;97410.59;5065255;28;20024;-90
2021/01/07 04:31:03;;;;;;;25.85;12.00;;;;;;;26.78;15.63;97412.59;5094324;28;20036;-90
2021/01/07 04:33:29;;;;;;;29.05;13.55;;;;;;;26.99;15.42;97414.50;5087004;28;20048;-91
2021/01/07 04:35:55;;;;;;;28.25;13.38;;;;;;;27.30;15.23;97414.31;5093011;28;20067;-90
2021/01/07 04:38:21;;;;;;;29.33;14.75;;;;;;;27.01;15.35;97409.16;5094451;28;20032;-90
2021/01/07 04:40:47;;;;;;;26.77;13.40;;;;;;;27.01;15.35;97408.38;5092999;28;20105;-90
2021/01/07 04:43:13;;;;;;;33.40;16.15;;;;;;;27.19;15.26;97409.16;5075875;28;20111;-91
2021/01/07 04:45:39;;;;;;;31.35;16.42;;;;;;;27.40;15.00;97411.03;5094218;28;20028;-90
2021/01/07 04:48:07;;;;;;;29.88;15.30;;;;;;;26.88;15.48;97404.94;5094071;28;20064;-90
2021/01/07 04:50:34;;;;;;;31.63;14.23;;;;;;;26.53;15.79;97408.03;5071547;28;20028;-92
2021/01/07 04:53:01;;;;;;;29.40;15.48;;;;;;;26.76;15.74;97405.88;5088990;28;20031;-92
2021/01/07 04:55:27;;;;;;;34.53;16.00;;;;;;;26.87;15.53;97404.16;5081963;28;20032;-91
2021/01/07 04:57:54;;;;;;;38.75;17.25;;;;;;;26.93;15.32;97404.31;5093775;28;20036;-91
2021/01/07 05:00:20;;;;;;;34.72;17.95;;;;;;;26.91;15.28;97399.16;5078655;28;20063;-91
2021/01/07 05:02:47;;;;;;;37.45;20.13;;;;;;;26.78;15.40;97409.00;5079583;28;20068;-91
2021/01/07 05:05:13;;;;;;;41.35;18.70;;;;;;;26.58;15.77;97401.75;5086457;28;20063;-91
2021/01/07 05:07:40;;;;;;;44.38;21.58;;;;;;;26.61;15.53;97411.31;5088353;28;20036;-92
2021/01/07 05:10:11;;;;;;;43.42;20.58;;;;;;;26.55;15.81;97407.56;5094437;28;20043;-92
2021/01/07 05:12:38;;;;;;;;;;;;;;;26.56;15.80;97407.06;5080737;28;20032;-92
2021/01/07 05:15:05;;;;;;;45.95;19.58;;;;;;;26.61;15.66;97397.22;5074242;28;20405;-91
2021/01/07 05:17:32;;;;;;;44.10;22.00;;;;;;;26.49;15.96;97401.75;5073605;28;20033;-92
2021/01/07 05:19:58;;;;;;;34.05;17.08;;;;;;;26.63;15.50;97400.34;5079173;28;20499;-91
2021/01/07 05:22:38;;;;;;;40.42;19.40;;;;;;;26.86;15.24;97402.63;5079701;28;20033;-92
2021/01/07 05:25:12;;;;;;;35.97;17.85;;;;;;;27.08;15.07;97403.22;5065679;28;20035;-91
2021/01/07 05:27:40;;;;;;;32.90;15.90;;;;;;;27.09;15.35;97412.47;5078468;28;20101;-91
2021/01/07 05:30:09;;;;;;;34.22;16.55;;;;;;;27.20;14.96;97409.94;5072422;28;20101;-91
2021/01/07 05:32:38;;;;;;;36.00;16.92;;;;;;;27.47;14.90;97409.16;5075348;28;20028;-91
2021/01/07 05:35:07;;;;;;;43.65;18.63;;;;;;;27.61;14.60;97400.78;5075861;28;20033;-91
2021/01/07 05:37:35;;;;;;;49.13;22.55;;;;;;;27.63;14.78;97400.34;5083037;28;20101;-91
2021/01/07 05:40:03;;;;;;;43.40;20.00;;;;;;;27.67;14.61;97401.75;5062929;28;20051;-91
2021/01/07 05:42:37;;;;;;;39.88;18.52;;;;;;;27.65;14.78;97415.53;5082419;28;20157;-91
2021/01/07 05:45:06;;;;;;;39.17;19.10;;;;;;;27.80;14.42;97413.59;5088462;28;20032;-90
2021/01/07 05:47:39;;;;;;;54.85;23.00;;;;;;;27.63;14.53;97406.78;5079753;28;20033;-91
2021/01/07 05:50:06;;;;;;;32.78;17.50;;;;;;;27.34;14.83;97407.25;5087159;28;20031;-90
2021/01/07 05:52:33;;;;;;;35.05;16.88;;;;;;;27.14;15.04;97406.97;5081917;28;20029;-91
2021/01/07 05:55:00;;;;;;;36.75;16.30;;;;;;;27.09;15.06;97413.25;5095930;28;20031;-91
2021/01/07 05:57:28;;;;;;;36.53;17.90;;;;;;;26.90;15.41;97410.91;5075713;28;20025;-91
2021/01/07 05:59:56;;;;;;;39.63;18.67;;;;;;;26.63;15.65;97417.25;5075415;28;20036;-91
2021/01/07 06:02:23;;;;;;;38.63;18.33;;;;;;;26.73;15.34;97410.38;5074623;28;20510;-91
2021/01/07 06:04:52;;;;;;;40.63;19.38;;;;;;;26.73;15.41;97416.81;5080154;28;20040;-91
2021/01/07 06:07:19;;;;;;;42.45;19.00;;;;;;;26.06;16.13;97430.84;5089134;28;20044;-90
2021/01/07 06:09:47;;;;;;;30.38;15.18;;;;;;;25.93;16.26;97427.34;5079576;28;20133;-91
2021/01/07 06:12:14;;;;;;;32.60;16.92;;;;;;;26.08;16.10;97422.72;5076015;28;20031;-90
2021/01/07 06:14:45;;;;;;;30.45;15.18;;;;;;;25.83;16.42;97428.56;5067672;28;20097;-90
2021/01/07 06:17:14;;;;;;;37.22;17.55;;;;;;;25.79;16.44;97433.53;5078465;28;20020;-88
2021/01/07 06:19:42;;;;;;;33.10;15.68;;;;;;;25.80;16.51;97432.28;5073620;28;20495;-90
2021/01/07 06:22:10;;;;;;;33.60;16.88;;;;;;;25.50;16.71;97429.47;5092671;28;20082;-92
2021/01/07 06:24:38;;;;;;;28.05;15.05;;;;;;;25.36;16.87;97425.13;5074513;28;20031;-93
2021/01/07 06:27:33;;;;;;;36.22;15.65;;;;;;;24.84;17.26;97434.25;5085532;28;20028;-91
2021/01/07 06:30:05;;;;;;;36.08;17.00;;;;;;;23.47;18.49;97433.06;5066718;28;20044;-90
2021/01/07 06:32:32;;;;;;;30.05;16.08;;;;;;;22.52;19.81;97444.88;5081099;28;20495;-90
2021/01/07 06:34:59;;;;;;;27.27;14.18;;;;;;;22.71;19.68;97437.59;5087746;28;20499;-91
2021/01/07 06:37:36;;;;;;;33.95;16.65;;;;;;;22.26;20.16;97435.53;5059767;28;20055;-91
2021/01/07 06:40:11;;;;;;;32.00;14.38;;;;;;;22.37;20.01;97446.44;5077468;28;20097;-91
2021/01/07 06:42:42;;;;;;;31.60;15.77;;;;;;;21.05;21.55;97450.56;5073789;28;20391;-86
2021/01/07 06:45:10;;;;;;;34.80;15.18;;;;;;;21.98;20.48;97456.53;5081517;28;20037;-89
2021/01/07 06:47:38;;;;;;;37.63;17.90;;;;;;;21.20;21.36;97457.44;5082590;28;20028;-88
2021/01/07 06:50:06;;;;;;;32.97;16.13;;;;;;;21.39;21.50;97469.03;5063136;28;20060;-88
2021/01/07 06:52:46;;;;;;;29.38;14.98;;;;;;;22.04;20.71;97465.22;5090077;28;20119;-88
2021/01/07 06:55:15;;;;;;;26.23;12.63;;;;;;;22.04;20.49;97473.59;5087368;28;20077;-88
2021/01/07 06:57:49;;;;;;;26.52;14.15;;;;;;;22.32;20.23;97472.13;5077046;28;20033;-89
2021/01/07 07:00:18;;;;;;;22.13;11.63;;;;;;;22.72;19.89;97467.16;5084926;28;20568;-88
2021/01/07 07:03:17;;;;;;;28.52;12.57;;;;;;;23.25;19.33;97469.28;5091602;28;20082;-88
2021/01/07 07:05:54;;;;;;;24.45;12.98;;;;;;;23.50;18.98;97477.03;5052540;28;20130;-88
2021/01/07 07:08:34;;;;;;;22.88;10.70;;;;;;;23.76;18.69;97481.44;5073367;28;20036;-88
2021/01/07 07:11:08;;;;;;;25.15;12.43;;;;;;;24.12;18.38;97487.56;5084340;28;20426;-88
2021/01/07 07:13:41;;;;;;;24.90;10.32;;;;;;;23.98;18.42;97491.56;5080369;28;20498;-88
2021/01/07 07:16:10;;;;;;;26.38;12.63;;;;;;;24.50;17.93;97502.38;5081838;28;20055;-88
2021/01/07 07:18:37;;;;;;;22.55;11.65;;;;;;;24.45;17.82;97491.69;5090024;28;20048;-88
2021/01/07 07:21:18;;;;;;;20.85;11.13;;;;;;;24.81;17.46;97501.78;5092583;28;20031;-87
2021/01/07 07:23:45;;;;;;;17.55;9.52;;;;;;;24.82;17.31;97503.34;5086521;28;20032;-87
2021/01/07 07:26:13;;;;;;;17.50;8.85;;;;;;;23.72;18.45;97508.78;5085576;28;20103;-88
2021/01/07 07:28:44;;;;;;;20.77;9.98;;;;;;;23.95;18.33;97514.88;5066984;28;20078;-88
2021/01/07 07:31:11;;;;;;;12.30;7.45;;;;;;;22.13;20.25;97523.31;5089176;28;20036;-88
2021/01/07 07:33:43;;;;;;;17.33;9.45;;;;;;;22.12;20.31;97521.75;5088244;28;20095;-88
2021/01/07 07:36:13;;;;;;;13.95;8.80;;;;;;;21.63;20.76;97529.19;5086924;28;20111;-88
2021/01/07 07:38:41;;;;;;;17.00;9.98;;;;;;;21.93;20.63;97526.16;5086471;28;20043;-88
2021/01/07 07:41:11;;;;;;;15.43;8.32;;;;;;;21.48;21.11;97525.09;5089824;28;20028;-88
2021/01/07 07:43:39;;;;;;;14.23;8.55;;;;;;;20.86;21.73;97537.81;5095057;28;20035;-88
2021/01/07 07:46:07;;;;;;;15.18;7.88;;;;;;;21.84;20.66;97528.75;5091683;28;20029;-88
2021/01/07 07:48:35;;;;;;;17.38;10.20;;;;;;;22.42;20.17;97541.81;5093383;28;20035;-88
2021/01/07 07:51:08;;;;;;;15.32;8.18;;;;;;;23.13;19.40;97538.03;5089749;28;20028;-88
2021/01/07 07:53:36;;;;;;;15.20;7.53;;;;;;;22.81;19.71;97542.88;5068747;28;20041;-88
2021/01/07 07:56:02;;;;;;;19.13;10.43;;;;;;;22.23;20.19;97542.66;5084555;28;20403;-88
2021/01/07 07:58:28;;;;;;;20.55;11.43;;;;;;;22.67;19.89;97544.81;5064003;28;20036;-88
2021/01/07 08:00:56;;;;;;;17.95;9.00;;;;;;;22.29;19.93;97546.50;5066583;28;20429;-89
2021/01/07 08:03:28;;;;;;;15.15;7.30;;;;;;;20.82;21.40;97551.03;5091932;28;20086;-88
2021/01/07 08:05:56;;;;;;;15.90;9.07;;;;;;;21.96;20.56;97553.25;5084341;28;20036;-88
2021/01/07 08:08:30;;;;;;;14.50;7.88;;;;;;;22.92;19.39;97557.41;5072154;28;20545;-88
2021/01/07 08:10:58;;;;;;;19.38;10.15;;;;;;;22.01;20.35;97567.50;5081170;28;20039;-88
2021/01/07 08:13:26;;;;;;;15.60;9.07;;;;;;;21.84;20.20;97567.91;5079811;28;20166;-88
2021/01/07 08:15:57;;;;;;;12.80;6.65;;;;;;;22.38;20.01;97569.06;5078986;28;20063;-88
2021/01/07 08:18:28;;;;;;;13.93;7.72;;;;;;;22.61;19.59;97570.97;5075593;28;20021;-87
2021/01/07 08:21:06;;;;;;;17.95;9.55;;;;;;;22.49;19.94;97577.22;5086612;28;20035;-88
2021/01/07 08:23:33;;;;;;;17.10;8.35;;;;;;;21.22;20.83;97572.28;5062192;28;20039;-89
2021/01/07 08:26:01;;;;;;;14.25;8.10;;;;;;;22.22;19.96;97571.81;5084703;28;20449;-89
2021/01/07 08:28:46;;;;;;;14.60;7.95;;;;;;;23.09;19.03;97568.16;5081909;28;20063;-89
2021/01/07 08:31:18;;;;;;;23.70;10.80;;;;;;;22.11;20.15;97585.25;5085587;28;20035;-89
2021/01/07 08:33:45;;;;;;;16.73;8.32;;;;;;;22.23;20.13;97587.41;5084872;28;20065;-90
2021/01/07 08:36:14;;;;;;;24.10;12.43;;;;;;;21.84;20.36;97581.88;5063611;28;20028;-89
2021/01/07 08:38:51;;;;;;;19.25;10.38;;;;;;;21.92;20.12;97586.88;5081259;28;20047;-89
2021/01/07 08:41:23;;;;;;;17.35;8.18;;;;;;;22.05;20.24;97589.00;5080444;28;20312;-90
2021/01/07 08:43:53;;;;;;;17.08;8.90;;;;;;;20.91;21.21;97581.19;5086676;28;20044;-88
2021/01/07 08:46:25;;;;;;;18.70;9.25;;;;;;;21.69;20.63;97597.31;5072617;28;20024;-89
2021/01/07 08:48:59;;;;;;;15.48;8.10;;;;;;;21.33;20.87;97595.19;5083153;28;20404;-89
2021/01/07 08:51:25;;;;;;;23.60;10.60;;;;;;;21.19;21.17;97591.88;5084553;28;20032;-88
2021/01/07 08:53:53;;;;;;;16.42;8.20;;;;;;;22.24;20.06;97596.59;5069245;28;20060;-88
2021/01/07 08:56:29;;;;;;;14.75;7.68;;;;;;;22.58;19.47;97596.97;5088670;28;20028;-88
2021/01/07 08:59:14;;;;;;;21.65;9.52;;;;;;;22.23;19.44;97603.38;5064290;28;20138;-88
2021/01/07 09:01:51;;;;;;;15.30;7.82;;;;;;;20.98;21.33;97603.41;5078722;28;20039;-89
2021/01/07 09:04:33;;;;;;;15.80;7.38;;;;;;;21.09;20.93;97599.22;5065457;28;20028;-89
2021/01/07 09:07:00;;;;;;;14.32;7.47;;;;;;;21.50;20.88;97606.44;5076963;28;20028;-89
2021/01/07 09:09:27;;;;;;;16.25;8.55;;;;;;;21.66;20.60;97612.13;5090841;28;20337;-88
2021/01/07 09:12:16;;;;;;;18.30;9.15;;;;;;;22.67;19.19;97614.78;5087347;28;20527;-89
2021/01/07 09:14:49;;;;;;;26.40;13.50;;;;;;;22.58;19.34;97610.97;5060685;28;20075;-89
2021/01/07 09:17:16;;;;;;;17.25;8.70;;;;;;;22.11;19.84;97610.44;5070588;28;20123;-89
2021/01/07 09:19:43;;;;;;;19.10;10.18;;;;;;;22.72;19.33;97610.66;5078619;28;20106;-88
2021/01/07 09:22:19;;;;;;;15.75;7.65;;;;;;;22.96;18.70;97605.69;5097156;28;20058;-88
2021/01/07 09:24:46;;;;;;;14.60;6.97;;;;;;;22.60;19.17;97614.94;5076546;28;20028;-89
2021/01/07 09:27:20;;;;;;;13.95;7.47;;;;;;;22.60;19.37;97611.31;5085425;28;20028;-89
2021/01/07 09:29:49;;;;;;;15.98;7.90;;;;;;;23.07;19.06;97597.81;5083278;28;20384;-89
2021/01/07 09:32:19;;;;;;;14.27;8.27;;;;;;;22.19;19.52;97609.06;5084387;28;20059;-89
2021/01/07 09:34:45;;;;;;;11.68;6.43;;;;;;;22.76;19.32;97611.38;5084538;28;20033;-89
2021/01/07 09:37:19;;;;;;;14.25;7.20;;;;;;;22.67;19.31;97606.38;5086429;28;20039;-89
2021/01/07 09:39:48;;;;;;;13.30;8.05;;;;;;;22.29;19.58;97599.63;5066037;28;20048;-88
2021/01/07 09:42:16;;;;;;;14.63;7.10;;;;;;;22.68;19.21;97607.19;5081173;28;20039;-89
2021/01/07 09:44:43;;;;;;;13.40;6.25;;;;;;;22.52;19.42;97605.09;5061405;28;20488;-89
2021/01/07 09:47:09;;;;;;;16.67;8.52;;;;;;;21.93;20.13;97608.03;5083979;28;20016;-89
2021/01/07 09:49:36;;;;;;;12.43;6.93;;;;;;;22.63;19.39;97613.28;5083860;28;20119;-89
2021/01/07 09:52:03;;;;;;;12.48;7.00;;;;;;;23.40;18.73;97604.19;5082523;28;20546;-89
2021/01/07 09:54:30;;;;;;;14.57;7.57;;;;;;;23.11;18.84;97601.28;5082472;28;20035;-89
2021/01/07 09:56:58;;;;;;;13.63;7.70;;;;;;;23.42;18.61;97601.72;5065373;28;20046;-89
2021/01/07 09:59:25;;;;;;;20.75;9.25;;;;;;;22.98;19.00;97606.03;5083263;28;20043;-89
2021/01/07 10:01:56;;;;;;;17.92;9.32;;;;;;;22.83;18.97;97605.59;5083051;28;20028;-89
2021/01/07 10:04:22;;;;;;;15.13;8.23;;;;;;;22.02;19.91;97613.81;5080735;28;20064;-89
2021/01/07 10:06:49;;;;;;;13.40;7.25;;;;;;;21.89;20.29;97620.50;5086933;28;20032;-89
2021/01/07 10:09:16;;;;;;;16.10;9.13;;;;;;;20.87;21.20;97608.34;5086650;28;20054;-88
2021/01/07 10:11:42;;;;;;;14.10;7.28;;;;;;;22.28;19.47;97617.66;5094149;28;20032;-90
2021/01/07 10:14:08;;;;;;;12.68;7.57;;;;;;;21.92;19.95;97614.81;5086595;28;20039;-89
2021/01/07 10:16:35;;;;;;;15.07;8.38;;;;;;;21.44;20.67;97616.56;5083153;28;20021;-89
2021/01/07 10:19:01;;;;;;;13.38;7.60;;;;;;;21.38;20.57;97610.66;5071418;28;20036;-89
2021/01/07 10:21:32;;;;;;;22.35;10.57;;;;;;;22.06;19.72;97618.53;5083377;28;20028;-89
2021/01/07 10:23:59;;;;;;;21.00;10.32;;;;;;;23.03;18.95;97614.72;5082657;28;20036;-89
2021/01/07 10:26:26;;;;;;;17.67;9.88;;;;;;;22.42;19.31;97608.16;5061619;28;20158;-89
2021/01/07 10:28:52;;;;;;;16.60;8.43;;;;;;;21.81;20.06;97605.84;5087550;28;20055;-90
2021/01/07 10:31:19;;;;;;;14.93;8.07;;;;;;;22.11;19.91;97618.81;5069727;28;20032;-89
2021/01/07 10:33:46;;;;;;;17.02;9.38;;;;;;;21.93;19.95;97612.81;5067292;28;20059;-88
2021/01/07 10:36:17;;;;;;;11.90;6.82;;;;;;;22.61;19.70;97613.69;5084089;28;20043;-88
2021/01/07 10:38:47;;;;;;;;;;;;;;;22.14;19.97;97620.75;5083249;28;20024;-89
2021/01/07 10:41:14;;;;;;;15.07;8.52;;;;;;;21.83;20.08;97617.38;5085782;28;19923;-89
2021/01/07 10:43:41;;;;;;;11.93;7.00;;;;;;;21.24;20.75;97617.28;5084250;28;20032;-90
2021/01/07 10:46:07;;;;;;;12.18;6.70;;;;;;;22.16;20.00;97618.31;5058863;28;20036;-88
2021/01/07 10:48:42;;;;;;;11.55;6.80;;;;;;;22.36;19.58;97624.66;5083465;28;20044;-89
2021/01/07 10:51:08;;;;;;;10.73;6.07;;;;;;;22.14;19.46;97620.75;5085655;28;20064;-88
2021/01/07 10:53:53;;;;;;;10.43;6.47;;;;;;;22.11;19.68;97615.22;5068021;28;20036;-88
2021/01/07 10:56:46;;;;;;;11.32;6.13;;;;;;;21.89;19.67;97618.47;5085479;28;20044;-88
2021/01/07 10:59:47;;;;;;;9.18;5.20;;;;;;;20.54;21.07;97622.00;5094279;28;20468;-89
2021/01/07 11:02:34;;;;;;;10.03;5.67;;;;;;;20.20;21.54;97623.28;5088232;28;20400;-89
2021/01/07 11:05:10;;;;;;;8.75;5.85;;;;;;;20.44;21.54;97619.41;5083023;28;20078;-89
2021/01/07 11:08:01;;;;;;;9.10;5.72;;;;;;;20.32;21.02;97617.16;5070962;28;20028;-89
2021/01/07 11:10:29;;;;;;;8.90;5.10;;;;;;;20.68;20.93;97624.59;5085722;28;20036;-89
2021/01/07 11:13:07;;;;;;;8.32;4.30;;;;;;;20.77;21.17;97617.69;5087855;28;20059;-89
2021/01/07 11:15:37;;;;;;;11.15;7.00;;;;;;;20.84;20.72;97614.78;5085707;28;20025;-89
2021/01/07 11:18:10;;;;;;;11.43;5.90;;;;;;;20.23;21.37;97614.13;5068963;28;20054;-89
2021/01/07 11:20:48;;;;;;;11.38;5.68;;;;;;;20.23;21.85;97620.50;5070066;28;20016;-89
2021/01/07 11:23:15;;;;;;;11.40;5.47;;;;;;;20.94;21.08;97625.75;5088486;28;20031;-88
2021/01/07 11:25:42;;;;;;;10.65;6.03;;;;;;;20.36;21.74;97623.47;5088723;28;20024;-89
2021/01/07 11:28:19;;;;;;;14.57;7.78;;;;;;;19.78;22.10;97608.69;5070370;28;20039;-88
2021/01/07 11:30:47;;;;;;;13.45;7.78;;;;;;;19.17;23.04;97612.50;5086538;28;20442;-88